Time;durP1;ratioP1;P1;durP2;ratioP2;P2;SDS_P1;SDS_P2;PMS_P1;PMS_P2;Temp;Humidity;BMP_temperature;BMP_pressure;BME280_temperature;BME280_humidity;BME280_pressure;Samples;Min_cycle;Max_cycle;Signal;HPM_P1;HPM_P2
2022/07/17 00:01:14;;;;;;;8.27;3.33;;;;;;;14.18;70.23;102628.91;5055714;28;20033;-70
2022/07/17 00:03:40;;;;;;;5.68;2.30;;;;;;;14.18;70.56;102628.03;5067563;28;20387;-70
2022/07/17 00:06:05;;;;;;;5.95;2.22;;;;;;;14.12;71.40;102626.34;5072372;28;20024;-70
2022/07/17 00:08:31;;;;;;;7.82;2.38;;;;;;;14.08;70.64;102637.75;5074278;28;20440;-70
2022/07/17 00:10:57;;;;;;;5.85;2.20;;;;;;;14.01;71.56;102630.81;5061611;28;20024;-70
2022/07/17 00:13:23;;;;;;;3.72;2.15;;;;;;;13.90;71.67;102635.31;5074312;28;20024;-70
2022/07/17 00:15:49;;;;;;;3.83;2.10;;;;;;;13.85;71.72;102631.84;5072792;28;20020;-70
2022/07/17 00:18:14;;;;;;;6.63;3.17;;;;;;;13.80;72.14;102630.13;5074767;28;20624;-70
2022/07/17 00:20:39;;;;;;;4.53;2.67;;;;;;;13.76;72.58;102636.25;5073312;28;20111;-70
2022/07/17 00:23:05;;;;;;;6.43;2.67;;;;;;;13.76;72.88;102640.66;5072623;28;20028;-70
2022/07/17 00:25:32;;;;;;;5.78;2.30;;;;;;;13.76;72.76;102640.66;5072679;28;20487;-70
2022/07/17 00:27:57;;;;;;;8.10;2.95;;;;;;;13.63;72.71;102639.88;5073953;28;20032;-70
2022/07/17 00:30:23;;;;;;;7.72;3.10;;;;;;;13.64;72.74;102636.38;5074698;28;20021;-70
2022/07/17 00:32:48;;;;;;;6.97;2.95;;;;;;;13.55;73.09;102623.34;5072821;28;20031;-70
2022/07/17 00:35:14;;;;;;;5.57;2.60;;;;;;;13.58;73.17;102637.28;5074566;28;20024;-70
2022/07/17 00:37:41;;;;;;;8.98;3.15;;;;;;;13.50;73.81;102633.84;5063984;28;20040;-70
2022/07/17 00:40:07;;;;;;;5.03;2.60;;;;;;;13.48;73.67;102634.75;5068654;28;20067;-70
2022/07/17 00:42:33;;;;;;;4.85;2.70;;;;;;;13.42;73.91;102629.56;5067644;28;20046;-70
2022/07/17 00:44:58;;;;;;;4.93;2.58;;;;;;;13.44;74.18;102638.25;5067612;28;20017;-70
2022/07/17 00:47:23;;;;;;;7.40;2.55;;;;;;;13.43;73.95;102631.28;5071009;28;20033;-70
2022/07/17 00:49:49;;;;;;;7.55;2.90;;;;;;;13.42;74.70;102635.66;5074076;28;20025;-70
2022/07/17 00:52:16;;;;;;;8.07;3.00;;;;;;;13.38;74.50;102640.94;5073217;28;20021;-70
2022/07/17 00:54:43;;;;;;;8.95;2.70;;;;;;;13.33;74.58;102643.56;5073277;28;20042;-70
2022/07/17 00:57:13;;;;;;;6.63;2.67;;;;;;;13.36;75.02;102640.94;5072425;28;20036;-70
2022/07/17 00:59:39;;;;;;;6.78;2.60;;;;;;;13.33;75.12;102638.34;5061565;28;20044;-70
2022/07/17 01:02:07;;;;;;;5.88;2.67;;;;;;;13.26;75.19;102628.78;5071812;28;20012;-70
2022/07/17 01:04:33;;;;;;;9.05;3.00;;;;;;;13.16;75.24;102627.94;5073680;28;20044;-70
2022/07/17 01:07:00;;;;;;;6.25;2.60;;;;;;;13.12;75.52;102627.09;5065341;28;20369;-70
2022/07/17 01:09:28;;;;;;;6.82;2.90;;;;;;;13.04;75.53;102621.00;5070476;28;20032;-70
2022/07/17 01:11:53;;;;;;;8.68;3.38;;;;;;;13.05;75.60;102619.28;5063392;28;20029;-70
2022/07/17 01:14:19;;;;;;;10.70;3.20;;;;;;;13.06;75.62;102623.63;5070033;28;20384;-70
2022/07/17 01:16:44;;;;;;;10.68;3.60;;;;;;;13.03;75.23;102615.78;5071651;28;20025;-70
2022/07/17 01:19:11;;;;;;;4.97;3.05;;;;;;;12.98;76.02;102617.56;5073957;28;20031;-70
2022/07/17 01:21:47;;;;;;;5.18;3.08;;;;;;;13.00;76.15;102627.13;5073352;28;20020;-70
2022/07/17 01:24:13;;;;;;;5.00;3.38;;;;;;;12.95;76.46;102622.81;5070791;28;20035;-70
2022/07/17 01:26:47;;;;;;;9.18;2.92;;;;;;;12.91;76.53;102608.00;5067294;28;20020;-70
2022/07/17 01:29:13;;;;;;;7.75;3.80;;;;;;;12.95;76.67;102623.69;5073255;28;20025;-70
2022/07/17 01:31:39;;;;;;;4.95;3.13;;;;;;;12.94;77.17;102618.44;5073456;28;20048;-70
2022/07/17 01:34:07;;;;;;;7.82;3.47;;;;;;;12.95;76.99;102617.56;5066121;28;20032;-70
2022/07/17 01:36:33;;;;;;;6.30;3.60;;;;;;;12.89;76.64;102613.25;5071426;28;20029;-71
2022/07/17 01:38:58;;;;;;;9.25;3.65;;;;;;;12.85;76.78;102616.75;5073564;28;20024;-70
2022/07/17 01:41:26;;;;;;;6.85;3.65;;;;;;;12.76;76.77;102608.94;5073537;28;20031;-70
2022/07/17 01:43:52;;;;;;;5.25;3.25;;;;;;;12.71;77.13;102613.31;5070205;28;20059;-70
2022/07/17 01:46:17;;;;;;;8.88;3.53;;;;;;;12.70;77.54;102608.97;5069492;28;20060;-70
2022/07/17 01:48:42;;;;;;;5.90;3.35;;;;;;;12.66;77.46;102613.34;5073094;28;20049;-70
2022/07/17 01:51:08;;;;;;;7.63;3.95;;;;;;;12.63;77.79;102619.47;5072295;28;20116;-70
2022/07/17 01:53:33;;;;;;;10.82;3.83;;;;;;;12.64;77.74;102618.56;5070410;28;20033;-70
2022/07/17 01:55:59;;;;;;;6.20;3.55;;;;;;;12.63;77.78;102626.44;5071730;28;20136;-70
2022/07/17 01:58:24;;;;;;;6.90;3.45;;;;;;;12.59;78.74;102625.59;5072366;28;20031;-70
2022/07/17 02:00:50;;;;;;;5.65;3.33;;;;;;;12.56;78.31;102622.97;5072176;28;20476;-70
2022/07/17 02:03:16;;;;;;;7.25;3.75;;;;;;;12.55;78.37;102633.44;5071805;28;20028;-70
2022/07/17 02:05:41;;;;;;;12.98;4.00;;;;;;;12.53;78.39;102628.22;5068480;28;20031;-71
2022/07/17 02:08:06;;;;;;;6.25;3.40;;;;;;;12.50;78.80;102638.69;5072756;28;20108;-70
2022/07/17 02:10:32;;;;;;;5.72;3.22;;;;;;;12.50;79.25;102636.06;5072982;28;20031;-70
2022/07/17 02:12:58;;;;;;;10.02;3.50;;;;;;;12.48;79.17;102629.97;5057318;28;20020;-70
2022/07/17 02:15:23;;;;;;;8.63;3.42;;;;;;;12.45;79.74;102629.97;5072817;28;20028;-70
2022/07/17 02:17:48;;;;;;;5.10;3.33;;;;;;;12.43;79.87;102625.66;5068052;28;20037;-70
2022/07/17 02:20:14;;;;;;;6.72;3.60;;;;;;;12.39;79.89;102633.50;5071350;28;20024;-70
2022/07/17 02:22:39;;;;;;;5.88;3.67;;;;;;;12.35;79.78;102620.41;5072552;28;20031;-70
2022/07/17 02:25:06;;;;;;;13.18;3.72;;;;;;;12.31;80.35;102629.16;5070147;28;20020;-70
2022/07/17 02:27:32;;;;;;;6.70;3.47;;;;;;;12.31;80.58;102640.47;5070385;28;20392;-70
2022/07/17 02:29:58;;;;;;;11.68;3.78;;;;;;;12.31;80.21;102640.47;5072274;28;20023;-70
2022/07/17 02:32:23;;;;;;;8.38;3.58;;;;;;;12.27;80.43;102630.03;5071349;28;20033;-70
2022/07/17 02:34:48;;;;;;;6.38;3.70;;;;;;;12.26;80.64;102626.56;5060838;28;20107;-70
2022/07/17 02:37:14;;;;;;;8.15;3.58;;;;;;;12.26;80.50;102636.13;5071254;28;20032;-70
2022/07/17 02:39:52;;;;;;;5.80;3.60;;;;;;;12.22;80.68;102624.81;5071258;28;20028;-70
2022/07/17 02:42:18;;;;;;;6.65;3.70;;;;;;;12.19;81.34;102632.66;5070547;28;20484;-70
2022/07/17 02:44:43;;;;;;;8.95;3.80;;;;;;;12.13;81.18;102624.81;5070321;28;20054;-70
2022/07/17 02:47:08;;;;;;;5.57;3.42;;;;;;;12.08;80.98;102618.72;5069605;28;20468;-70
2022/07/17 02:49:34;;;;;;;7.45;3.42;;;;;;;12.04;81.58;102615.25;5071133;28;20025;-70
2022/07/17 02:51:59;;;;;;;8.18;4.10;;;;;;;12.00;81.29;102615.25;5071968;28;20032;-70
2022/07/17 02:54:24;;;;;;;6.20;3.42;;;;;;;12.01;81.16;102614.38;5069553;28;20045;-70
2022/07/17 02:56:49;;;;;;;8.35;3.85;;;;;;;11.96;81.50;102617.00;5069334;28;20051;-70
2022/07/17 02:59:15;;;;;;;7.75;3.95;;;;;;;11.95;81.36;102615.25;5072219;28;20029;-70
2022/07/17 03:01:40;;;;;;;9.43;4.10;;;;;;;11.90;81.83;102617.88;5071031;28;20099;-70
2022/07/17 03:04:05;;;;;;;5.55;3.45;;;;;;;11.82;82.05;102616.09;5071876;28;20345;-69
2022/07/17 03:06:30;;;;;;;6.53;3.97;;;;;;;11.80;81.96;102621.31;5070823;28;20024;-70
2022/07/17 03:08:56;;;;;;;8.43;4.05;;;;;;;11.80;82.18;102625.69;5070013;28;20085;-70
2022/07/17 03:11:21;;;;;;;10.93;4.25;;;;;;;11.77;82.46;102633.50;5065687;28;20029;-70
2022/07/17 03:13:46;;;;;;;10.48;3.95;;;;;;;11.76;83.10;102635.25;5062552;28;20035;-70
2022/07/17 03:16:11;;;;;;;8.02;4.35;;;;;;;11.75;82.55;102645.72;5069399;28;20029;-70
2022/07/17 03:18:37;;;;;;;6.25;4.10;;;;;;;11.74;82.91;102650.09;5071539;28;20069;-70
2022/07/17 03:21:02;;;;;;;10.32;4.03;;;;;;;11.67;82.70;102645.69;5071199;28;20385;-70
2022/07/17 03:23:27;;;;;;;9.00;4.18;;;;;;;11.57;82.93;102641.34;5071443;28;20032;-70
2022/07/17 03:25:53;;;;;;;8.70;4.00;;;;;;;11.62;83.39;102650.94;5070198;28;20475;-70
2022/07/17 03:28:18;;;;;;;8.63;4.15;;;;;;;11.57;83.45;102642.22;5071559;28;20025;-70
2022/07/17 03:30:43;;;;;;;9.27;4.22;;;;;;;11.57;84.15;102639.59;5070776;28;20035;-70
2022/07/17 03:33:09;;;;;;;6.22;3.72;;;;;;;11.57;84.02;102633.50;5071502;28;20468;-70
2022/07/17 03:35:34;;;;;;;7.07;4.15;;;;;;;11.55;83.57;102638.75;5071509;28;20029;-70
2022/07/17 03:37:59;;;;;;;8.68;4.03;;;;;;;11.53;83.43;102639.59;5068108;28;20036;-70
2022/07/17 03:40:25;;;;;;;10.02;4.05;;;;;;;11.46;83.99;102629.16;5056985;28;20062;-70
2022/07/17 03:42:50;;;;;;;6.70;3.90;;;;;;;11.44;84.30;102636.13;5070467;28;20457;-70
2022/07/17 03:45:15;;;;;;;9.98;4.65;;;;;;;11.44;84.42;102637.84;5071634;28;20021;-69
2022/07/17 03:47:40;;;;;;;10.52;4.60;;;;;;;11.42;84.22;102634.38;5070003;28;20036;-70
2022/07/17 03:50:06;;;;;;;7.60;3.97;;;;;;;11.43;85.20;102629.13;5070391;28;20028;-70
2022/07/17 03:52:31;;;;;;;9.68;4.82;;;;;;;11.44;84.33;102646.56;5071695;28;20025;-70
2022/07/17 03:54:57;;;;;;;7.22;4.22;;;;;;;11.43;84.67;102636.09;5070577;28;20055;-70
2022/07/17 03:57:22;;;;;;;7.10;4.22;;;;;;;11.44;84.77;102633.50;5069615;28;20060;-70
2022/07/17 03:59:47;;;;;;;8.15;4.60;;;;;;;11.43;84.70;102636.97;5070974;28;20099;-70
2022/07/17 04:02:13;;;;;;;6.75;3.75;;;;;;;11.47;84.56;102641.31;5071370;28;20108;-70
2022/07/17 04:04:38;;;;;;;8.98;4.10;;;;;;;11.49;84.76;102644.81;5069688;28;20066;-70
2022/07/17 04:07:03;;;;;;;8.35;4.25;;;;;;;11.52;85.25;102649.19;5069681;28;20025;-70
2022/07/17 04:09:29;;;;;;;8.13;4.32;;;;;;;11.52;85.19;102661.38;5070494;28;20024;-70
2022/07/17 04:11:54;;;;;;;7.20;4.40;;;;;;;11.50;84.90;102653.53;5060440;28;20033;-70
2022/07/17 04:14:19;;;;;;;6.85;3.60;;;;;;;11.51;85.10;102652.69;5071282;28;20480;-70
2022/07/17 04:16:44;;;;;;;8.35;4.38;;;;;;;11.52;85.02;102650.94;5069346;28;20041;-70
2022/07/17 04:19:10;;;;;;;7.18;4.13;;;;;;;11.54;85.02;102651.78;5070514;28;20082;-70
2022/07/17 04:21:35;;;;;;;5.38;4.07;;;;;;;11.57;85.53;102659.63;5071015;28;20028;-70
2022/07/17 04:24:00;;;;;;;8.35;4.30;;;;;;;11.59;84.80;102661.38;5074178;28;20025;-70
2022/07/17 04:26:26;;;;;;;6.85;3.83;;;;;;;11.63;85.29;102659.63;5070979;28;20033;-70
2022/07/17 04:28:51;;;;;;;9.80;4.45;;;;;;;11.67;84.93;102662.28;5074418;28;20039;-70
2022/07/17 04:31:16;;;;;;;10.80;4.55;;;;;;;11.69;85.12;102660.50;5074526;28;20044;-70
2022/07/17 04:33:41;;;;;;;8.55;4.40;;;;;;;11.72;85.08;102659.66;5073966;28;20396;-69
2022/07/17 04:36:07;;;;;;;10.07;4.80;;;;;;;11.86;85.08;102660.56;5068821;28;20155;-70
2022/07/17 04:38:32;;;;;;;8.15;4.50;;;;;;;11.91;85.04;102661.44;5072607;28;20028;-70
2022/07/17 04:40:58;;;;;;;9.02;4.70;;;;;;;12.01;84.78;102664.06;5073906;28;20452;-70
2022/07/17 04:43:23;;;;;;;8.27;4.13;;;;;;;12.10;84.72;102648.38;5074658;28;20020;-70
2022/07/17 04:45:49;;;;;;;10.95;4.60;;;;;;;12.14;84.01;102643.13;5072246;28;20020;-70
2022/07/17 04:48:14;;;;;;;8.65;4.50;;;;;;;12.23;84.03;102646.59;5073661;28;20036;-70
2022/07/17 04:50:39;;;;;;;12.77;4.75;;;;;;;12.29;84.08;102647.44;5074520;28;20495;-70
2022/07/17 04:53:05;;;;;;;12.80;5.05;;;;;;;12.32;83.50;102657.91;5073594;28;20388;-69
2022/07/17 04:55:30;;;;;;;9.27;5.20;;;;;;;12.41;82.48;102660.50;5072419;28;20484;-70
2022/07/17 04:57:55;;;;;;;9.43;5.05;;;;;;;12.48;82.78;102657.88;5072603;28;20032;-70
2022/07/17 05:00:21;;;;;;;10.30;4.47;;;;;;;12.54;82.95;102668.34;5073440;28;20098;-70
2022/07/17 05:02:46;;;;;;;8.95;4.85;;;;;;;12.67;82.57;102675.28;5073692;28;20059;-70
2022/07/17 05:05:12;;;;;;;13.98;5.57;;;;;;;12.72;81.59;102677.84;5073240;28;20020;-70
2022/07/17 05:07:37;;;;;;;8.95;4.60;;;;;;;12.81;81.64;102677.84;5070882;28;20392;-69
2022/07/17 05:10:04;;;;;;;10.00;4.82;;;;;;;12.83;81.31;102676.09;5074202;28;20101;-70
2022/07/17 05:12:29;;;;;;;9.18;4.30;;;;;;;12.89;81.17;102671.72;5059871;28;20539;-69
2022/07/17 05:14:55;;;;;;;9.50;4.50;;;;;;;12.93;80.85;102671.69;5072833;28;20198;-70
2022/07/17 05:17:20;;;;;;;8.07;4.57;;;;;;;12.96;80.08;102663.81;5059716;28;20064;-70
2022/07/17 05:19:45;;;;;;;8.65;4.60;;;;;;;13.00;79.98;102652.47;5071223;28;20025;-70
2022/07/17 05:22:11;;;;;;;8.48;4.35;;;;;;;13.08;80.06;102655.94;5073249;28;20456;-69
2022/07/17 05:24:36;;;;;;;7.22;4.95;;;;;;;13.19;80.69;102653.25;5073594;28;20024;-70
2022/07/17 05:27:01;;;;;;;10.93;4.18;;;;;;;13.24;78.93;102655.00;5071592;28;20048;-70
2022/07/17 05:29:27;;;;;;;8.50;5.13;;;;;;;13.29;79.13;102653.22;5073237;28;20104;-70
2022/07/17 05:31:52;;;;;;;8.23;4.50;;;;;;;13.37;78.09;102663.63;5073095;28;20059;-70
2022/07/17 05:34:18;;;;;;;11.25;4.55;;;;;;;13.42;78.12;102661.84;5072832;28;20020;-70
2022/07/17 05:36:43;;;;;;;9.73;4.80;;;;;;;13.39;77.00;102667.13;5071400;28;20472;-70
2022/07/17 05:39:08;;;;;;;9.02;4.38;;;;;;;13.47;77.90;102672.28;5073818;28;20096;-70
2022/07/17 05:41:34;;;;;;;10.20;4.53;;;;;;;13.52;77.09;102667.91;5073044;28;20020;-70
2022/07/17 05:43:59;;;;;;;10.75;4.53;;;;;;;13.55;77.26;102673.13;5072697;28;20017;-69
2022/07/17 05:46:25;;;;;;;10.30;5.28;;;;;;;13.64;78.00;102670.47;5071532;28;20039;-69
2022/07/17 05:48:50;;;;;;;11.15;4.75;;;;;;;13.69;77.03;102660.78;5058900;28;20031;-70
2022/07/17 05:51:16;;;;;;;11.60;5.13;;;;;;;13.72;76.42;102647.66;5072999;28;20048;-70
2022/07/17 05:53:41;;;;;;;13.55;4.90;;;;;;;13.77;76.79;102664.25;5073094;28;20021;-70
2022/07/17 05:56:06;;;;;;;10.20;5.20;;;;;;;13.82;76.75;102669.44;5070505;28;20556;-70
2022/07/17 05:58:32;;;;;;;10.75;5.07;;;;;;;13.86;76.68;102662.41;5071198;28;20091;-70
2022/07/17 06:00:57;;;;;;;10.77;5.05;;;;;;;13.90;76.78;102658.91;5071757;28;20107;-70
2022/07/17 06:03:22;;;;;;;12.35;5.60;;;;;;;13.95;76.03;102657.09;5072947;28;20396;-70
2022/07/17 06:05:48;;;;;;;9.82;5.35;;;;;;;13.95;75.79;102647.47;5068999;28;20024;-70
2022/07/17 06:08:13;;;;;;;8.63;5.30;;;;;;;14.09;75.47;102655.22;5069646;28;20381;-69
2022/07/17 06:10:38;;;;;;;9.93;5.82;;;;;;;14.14;75.50;102644.69;5071821;28;20051;-70
2022/07/17 06:13:04;;;;;;;8.52;6.18;;;;;;;14.22;75.32;102646.38;5058449;28;20482;-70
2022/07/17 06:15:29;;;;;;;11.25;6.05;;;;;;;14.24;73.46;102639.34;5071608;28;20040;-70
2022/07/17 06:17:55;;;;;;;10.80;6.50;;;;;;;14.28;74.23;102641.03;5070181;28;20056;-69
2022/07/17 06:20:20;;;;;;;11.65;7.05;;;;;;;14.36;74.01;102645.34;5072993;28;20036;-70
2022/07/17 06:22:46;;;;;;;10.55;6.15;;;;;;;14.40;73.55;102639.19;5071957;28;20021;-70
2022/07/17 06:25:11;;;;;;;10.20;5.40;;;;;;;14.39;73.94;102640.06;5071340;28;20021;-70
2022/07/17 06:27:41;;;;;;;8.85;4.68;;;;;;;14.49;73.11;102637.31;5067731;28;20028;-70
2022/07/17 06:30:11;;;;;;;20.17;5.43;;;;;;;14.55;73.60;102633.81;5072202;28;20013;-70
2022/07/17 06:32:36;;;;;;;9.90;4.50;;;;;;;14.64;74.49;102649.41;5072062;28;20025;-70
2022/07/17 06:35:02;;;;;;;10.18;4.40;;;;;;;14.75;73.91;102659.81;5072269;28;20396;-70
2022/07/17 06:37:27;;;;;;;13.30;4.28;;;;;;;14.80;73.15;102660.63;5069490;28;20119;-70
2022/07/17 06:39:52;;;;;;;8.10;4.30;;;;;;;14.88;72.30;102669.28;5070510;28;20479;-70
2022/07/17 06:42:18;;;;;;;10.35;3.72;;;;;;;14.92;71.25;102664.84;5072442;28;20375;-70
2022/07/17 06:44:43;;;;;;;6.82;3.83;;;;;;;15.01;70.57;102662.13;5071345;28;20029;-70
2022/07/17 06:47:08;;;;;;;11.85;4.90;;;;;;;15.08;69.49;102673.41;5070451;28;20053;-70
2022/07/17 06:49:34;;;;;;;7.15;3.78;;;;;;;15.15;68.93;102677.69;5073884;28;20034;-70
2022/07/17 06:51:59;;;;;;;9.40;3.65;;;;;;;15.22;69.61;102682.84;5070985;28;20021;-69
2022/07/17 06:54:25;;;;;;;11.27;3.85;;;;;;;15.30;70.22;102677.47;5070156;28;20549;-70
2022/07/17 06:56:52;;;;;;;9.05;3.90;;;;;;;15.39;69.76;102679.97;5068567;28;20166;-70
2022/07/17 06:59:17;;;;;;;7.55;3.50;;;;;;;15.46;69.81;102675.47;5071938;28;20021;-70
2022/07/17 07:01:42;;;;;;;10.25;3.67;;;;;;;15.57;68.59;102688.50;5071478;28;20035;-70
2022/07/17 07:04:08;;;;;;;9.07;3.90;;;;;;;15.64;69.19;102692.75;5068238;28;20016;-70
2022/07/17 07:06:33;;;;;;;7.85;3.55;;;;;;;15.70;68.55;102683.94;5071461;28;20036;-70
2022/07/17 07:08:58;;;;;;;9.35;3.92;;;;;;;15.77;67.92;102691.72;5071024;28;20375;-70
2022/07/17 07:11:24;;;;;;;8.27;3.15;;;;;;;15.84;67.98;102695.09;5066207;28;20025;-70
2022/07/17 07:13:49;;;;;;;11.73;3.90;;;;;;;15.91;65.83;102696.75;5062347;28;20024;-70
2022/07/17 07:16:15;;;;;;;7.38;3.58;;;;;;;15.97;67.54;102707.16;5073098;28;20025;-70
2022/07/17 07:18:40;;;;;;;6.57;3.55;;;;;;;16.03;64.29;102707.06;5071754;28;20076;-70
2022/07/17 07:21:06;;;;;;;9.63;3.88;;;;;;;16.12;65.95;102708.66;5071346;28;20522;-70
2022/07/17 07:23:31;;;;;;;7.13;3.45;;;;;;;16.17;67.34;102712.09;5071944;28;20386;-70
2022/07/17 07:25:56;;;;;;;5.55;3.33;;;;;;;16.31;64.63;102701.31;5071350;28;20020;-70
2022/07/17 07:28:21;;;;;;;10.80;4.25;;;;;;;16.41;65.25;102702.03;5070119;28;20020;-70
2022/07/17 07:30:47;;;;;;;6.65;3.95;;;;;;;16.49;64.57;102695.72;5071221;28;20054;-70
2022/07/17 07:33:13;;;;;;;6.32;4.05;;;;;;;16.57;63.31;102692.94;5071794;28;20057;-70
2022/07/17 07:35:38;;;;;;;9.40;4.22;;;;;;;16.62;65.00;102693.72;5070902;28;20032;-69
2022/07/17 07:38:04;;;;;;;8.32;3.90;;;;;;;16.68;64.24;102688.34;5070012;28;20376;-70
2022/07/17 07:40:30;;;;;;;10.85;4.15;;;;;;;16.81;64.24;102683.75;5064902;28;20029;-70
2022/07/17 07:42:57;;;;;;;8.45;3.90;;;;;;;16.91;64.63;102687.06;5068201;28;20104;-71
2022/07/17 07:45:22;;;;;;;7.78;3.15;;;;;;;16.95;65.29;102680.81;5071791;28;20025;-72
2022/07/17 07:47:50;;;;;;;16.23;4.40;;;;;;;17.04;63.56;102701.72;5068601;28;20032;-73
2022/07/17 07:50:16;;;;;;;8.38;3.58;;;;;;;17.07;63.76;102705.16;5066714;28;20116;-72
2022/07/17 07:52:42;;;;;;;12.07;4.10;;;;;;;17.11;62.67;102705.06;5071407;28;20082;-72
2022/07/17 07:55:09;;;;;;;8.20;3.40;;;;;;;17.18;64.55;102706.69;5070902;28;20033;-72
2022/07/17 07:57:35;;;;;;;8.60;3.65;;;;;;;17.28;62.06;102702.94;5071647;28;20067;-72
2022/07/17 08:00:00;;;;;;;6.97;3.67;;;;;;;17.32;62.72;102701.97;5059452;28;20029;-73
2022/07/17 08:02:25;;;;;;;10.77;3.35;;;;;;;17.44;61.57;102695.56;5066786;28;20025;-73
2022/07/17 08:04:51;;;;;;;11.32;3.80;;;;;;;17.48;59.25;102694.56;5062826;28;20033;-73
2022/07/17 08:07:16;;;;;;;7.38;3.50;;;;;;;17.51;58.38;102690.09;5068664;28;20029;-73
2022/07/17 08:09:41;;;;;;;8.70;3.30;;;;;;;17.54;59.85;102692.66;5074088;28;20027;-75
2022/07/17 08:12:06;;;;;;;5.82;2.88;;;;;;;17.68;60.87;102700.25;5063340;28;20016;-73
2022/07/17 08:14:32;;;;;;;9.45;2.85;;;;;;;17.77;61.61;102702.69;5062661;28;20031;-73
2022/07/17 08:16:57;;;;;;;7.50;3.25;;;;;;;17.81;61.04;102706.13;5074421;28;20024;-73
2022/07/17 08:19:22;;;;;;;8.02;3.47;;;;;;;17.88;59.68;102706.84;5060893;28;20021;-73
2022/07/17 08:21:48;;;;;;;7.10;2.72;;;;;;;17.97;58.18;102707.50;5074622;28;20050;-73
2022/07/17 08:24:13;;;;;;;6.43;2.45;;;;;;;18.11;59.43;102707.13;5073079;28;20366;-73
2022/07/17 08:26:39;;;;;;;6.40;2.60;;;;;;;18.13;57.63;102700.06;5073801;28;20059;-73
2022/07/17 08:29:04;;;;;;;7.38;3.15;;;;;;;18.18;56.05;102702.56;5074605;28;20460;-73
2022/07/17 08:31:29;;;;;;;7.38;2.58;;;;;;;18.15;57.26;102692.97;5074236;28;20016;-73
2022/07/17 08:33:55;;;;;;;7.43;3.10;;;;;;;18.32;58.17;102707.50;5074524;28;20522;-72
2022/07/17 08:36:20;;;;;;;7.22;2.97;;;;;;;18.46;56.86;102697.44;5073130;28;20109;-73
2022/07/17 08:38:45;;;;;;;5.88;2.72;;;;;;;18.56;55.83;102698.91;5061203;28;20032;-73
2022/07/17 08:41:16;;;;;;;6.32;2.22;;;;;;;18.63;56.81;102697.81;5068259;28;20444;-73
2022/07/17 08:43:41;;;;;;;6.60;2.80;;;;;;;18.78;57.41;102693.94;5072556;28;20047;-73
2022/07/17 08:46:10;;;;;;;6.95;3.03;;;;;;;18.89;54.63;102697.13;5073952;28;20021;-73
2022/07/17 08:48:37;;;;;;;5.85;2.50;;;;;;;18.95;55.40;102696.09;5071733;28;20029;-73
2022/07/17 08:51:03;;;;;;;8.68;2.47;;;;;;;18.93;55.16;102690.84;5066816;28;20032;-73
2022/07/17 08:53:29;;;;;;;6.45;2.30;;;;;;;19.05;56.53;102700.19;5063203;28;20120;-73
2022/07/17 08:55:54;;;;;;;7.00;3.08;;;;;;;19.15;53.41;102698.13;5073787;28;20124;-73
2022/07/17 08:58:19;;;;;;;3.88;2.13;;;;;;;19.21;54.59;102697.94;5074383;28;20032;-73
2022/07/17 09:00:45;;;;;;;6.80;2.08;;;;;;;19.36;53.09;102692.22;5073377;28;20020;-73
2022/07/17 09:03:11;;;;;;;5.47;2.38;;;;;;;19.45;52.13;102687.53;5073189;28;20037;-73
2022/07/17 09:05:41;;;;;;;3.15;1.88;;;;;;;19.47;50.92;102694.50;5072852;28;20054;-74
2022/07/17 09:08:18;;;;;;;5.80;1.80;;;;;;;19.49;52.17;102695.34;5076090;28;20035;-73
2022/07/17 09:10:45;;;;;;;5.70;1.98;;;;;;;19.57;53.54;102688.00;5067658;28;20049;-73
2022/07/17 09:13:25;;;;;;;4.72;1.90;;;;;;;19.79;53.38;102698.81;5063603;28;20032;-73
2022/07/17 09:15:53;;;;;;;2.78;1.85;;;;;;;19.95;52.65;102690.38;5073659;28;20032;-73
2022/07/17 09:18:19;;;;;;;8.73;2.25;;;;;;;20.00;52.15;102688.41;5074081;28;20082;-73
2022/07/17 09:20:55;;;;;;;4.22;1.88;;;;;;;20.00;50.22;102688.41;5065516;28;20419;-73
2022/07/17 09:23:23;;;;;;;5.70;2.25;;;;;;;20.06;51.59;102685.56;5059737;28;20480;-73
2022/07/17 09:25:53;;;;;;;4.72;1.70;;;;;;;20.15;50.88;102689.69;5073417;28;20066;-73
2022/07/17 09:28:20;;;;;;;3.42;1.75;;;;;;;20.14;48.01;102688.78;5064129;28;20053;-73
2022/07/17 09:30:54;;;;;;;5.25;1.70;;;;;;;20.27;48.04;102683.94;5064380;28;20028;-73
2022/07/17 09:33:22;;;;;;;3.50;1.65;;;;;;;20.33;47.60;102687.22;5071759;28;20052;-73
2022/07/17 09:35:54;;;;;;;4.32;1.75;;;;;;;20.40;48.30;102682.59;5061837;28;20361;-73
2022/07/17 09:38:35;;;;;;;5.43;1.80;;;;;;;20.51;49.24;102695.50;5071312;28;20062;-74
2022/07/17 09:41:09;;;;;;;7.22;2.10;;;;;;;20.63;48.40;102679.13;5069543;28;20033;-73
2022/07/17 09:43:52;;;;;;;6.38;1.83;;;;;;;20.76;48.77;102685.75;5072696;28;20024;-74
2022/07/17 09:46:20;;;;;;;5.25;1.88;;;;;;;20.75;47.40;102685.78;5073839;28;20023;-74
2022/07/17 09:48:48;;;;;;;7.40;2.10;;;;;;;20.77;48.01;102687.47;5072183;28;20016;-73
2022/07/17 09:51:16;;;;;;;5.80;1.70;;;;;;;20.94;47.68;102688.63;5070123;28;20083;-73
2022/07/17 09:53:46;;;;;;;5.70;2.17;;;;;;;21.10;48.61;102684.47;5069823;28;20396;-73
2022/07/17 09:56:14;;;;;;;5.88;2.13;;;;;;;21.20;45.05;102669.06;5068390;28;20059;-73
2022/07/17 09:58:42;;;;;;;5.22;2.08;;;;;;;21.28;44.06;102673.09;5069168;28;20032;-71
2022/07/17 10:01:08;;;;;;;3.65;1.60;;;;;;;21.48;44.19;102682.09;5062836;28;20507;-71
2022/07/17 10:03:34;;;;;;;5.47;2.15;;;;;;;21.50;44.13;102677.59;5067535;28;20107;-71
2022/07/17 10:06:01;;;;;;;6.00;1.90;;;;;;;21.70;44.15;102684.75;5071571;28;20027;-71
2022/07/17 10:08:27;;;;;;;4.68;2.13;;;;;;;21.78;43.97;102680.00;5065702;28;20028;-71
2022/07/17 10:10:52;;;;;;;6.82;1.98;;;;;;;21.81;44.95;102679.88;5072055;28;20024;-71
2022/07/17 10:13:17;;;;;;;2.95;1.50;;;;;;;21.74;39.27;102683.69;5073929;28;20026;-71
2022/07/17 10:15:43;;;;;;;2.38;1.92;;;;;;;21.80;41.21;102683.44;5071311;28;20025;-70
2022/07/17 10:18:08;;;;;;;4.93;1.73;;;;;;;21.98;41.80;102680.03;5072118;28;20021;-70
2022/07/17 10:20:34;;;;;;;4.00;2.15;;;;;;;22.06;41.96;102676.16;5069545;28;20434;-71
2022/07/17 10:22:59;;;;;;;5.20;2.03;;;;;;;22.06;42.95;102681.47;5068463;28;20117;-70
2022/07/17 10:25:25;;;;;;;4.80;1.70;;;;;;;22.12;41.12;102674.13;5063534;28;20021;-71
2022/07/17 10:27:55;;;;;;;5.13;1.98;;;;;;;22.27;43.91;102674.41;5052286;28;20021;-71
2022/07/17 10:30:26;;;;;;;3.17;1.90;;;;;;;22.39;41.43;102679.19;5054192;28;20029;-70
2022/07/17 10:32:58;;;;;;;5.15;1.90;;;;;;;22.43;42.29;102676.34;5050394;28;20024;-71
2022/07/17 10:35:25;;;;;;;4.50;1.60;;;;;;;22.62;43.01;102675.50;5055040;28;20029;-71
2022/07/17 10:37:50;;;;;;;7.10;2.50;;;;;;;22.68;39.49;102665.44;5053011;28;20064;-70
2022/07/17 10:40:29;;;;;;;5.70;1.90;;;;;;;22.77;41.97;102668.63;5053925;28;20115;-70
2022/07/17 10:42:59;;;;;;;5.88;1.65;;;;;;;22.93;42.16;102677.66;5055386;28;20035;-71
2022/07/17 10:45:33;;;;;;;5.28;1.95;;;;;;;22.96;41.70;102676.66;5058475;28;20078;-70
2022/07/17 10:47:58;;;;;;;6.00;1.98;;;;;;;23.19;38.67;102665.78;5052022;28;20028;-71
2022/07/17 10:50:40;;;;;;;6.47;2.10;;;;;;;23.25;41.23;102673.47;5051715;28;20025;-70
2022/07/17 10:53:22;;;;;;;4.35;2.25;;;;;;;23.45;40.43;102667.19;5051434;28;20267;-70
2022/07/17 10:56:00;;;;;;;5.03;1.85;;;;;;;23.55;39.33;102662.28;5054870;28;20127;-71
2022/07/17 10:58:26;;;;;;;4.28;1.70;;;;;;;23.70;37.26;102676.63;5051561;28;20025;-71
2022/07/17 11:01:27;;;;;;;6.32;1.83;;;;;;;23.99;40.06;102667.19;5050971;28;20017;-70
2022/07/17 11:03:56;;;;;;;5.03;1.83;;;;;;;24.13;38.22;102669.13;5046995;28;20043;-71
2022/07/17 11:06:32;;;;;;;4.60;1.88;;;;;;;24.33;38.58;102666.28;5056720;28;20036;-71
2022/07/17 11:09:09;;;;;;;6.32;2.13;;;;;;;24.40;35.55;102670.34;5051711;28;20035;-70
2022/07/17 11:11:40;;;;;;;4.38;2.20;;;;;;;24.45;37.73;102670.97;5051411;28;20499;-71
2022/07/17 11:14:15;;;;;;;5.10;2.10;;;;;;;24.68;39.65;102666.22;5067358;28;20037;-70
2022/07/17 11:16:45;;;;;;;6.63;2.30;;;;;;;24.63;37.66;102662.97;5070577;28;20029;-71
2022/07/17 11:19:10;;;;;;;5.72;2.08;;;;;;;24.76;38.46;102656.00;5062304;28;20041;-71
2022/07/17 11:21:49;;;;;;;5.85;2.00;;;;;;;24.87;37.64;102661.59;5063608;28;20074;-70